Time;durP1;ratioP1;P1;durP2;ratioP2;P2;SDS_P1;SDS_P2;PMS_P1;PMS_P2;Temp;Humidity;BMP_temperature;BMP_pressure;BME280_temperature;BME280_humidity;BME280_pressure;Samples;Min_cycle;Max_cycle;Signal;HPM_P1;HPM_P2
2022/01/06 00:01:56;;;;;;;37.45;17.82;;;;;;;5.23;89.28;99249.92;1761821;81;21887;-52
2022/01/06 00:05:05;;;;;;;38.05;18.00;;;;;;;5.21;89.34;99245.17;1761772;81;21260;-52
2022/01/06 00:08:14;;;;;;;38.50;17.82;;;;;;;5.20;89.39;99225.33;1761740;81;21247;-53
2022/01/06 00:11:23;;;;;;;30.40;16.90;;;;;;;5.19;89.22;99230.92;1761703;81;21216;-53
2022/01/06 00:14:55;;;;;;;29.42;17.42;;;;;;;5.11;89.07;99226.86;1745089;81;21200;-53
2022/01/06 00:18:12;;;;;;;29.67;17.85;;;;;;;5.06;89.28;99226.02;1761804;81;21207;-53
2022/01/06 00:24:21;;;;;;;36.20;19.48;;;;;;;5.06;89.37;99207.56;1770965;80;21378;-54
2022/01/06 00:27:27;;;;;;;36.48;18.52;;;;;;;5.01;89.32;99207.22;1771004;80;21658;-53
2022/01/06 00:30:32;;;;;;;28.60;17.90;;;;;;;5.00;89.42;99202.29;1770810;79;21216;-53
2022/01/06 00:33:39;;;;;;;28.77;17.62;;;;;;;5.04;89.60;99213.66;1770632;81;21205;-54
2022/01/06 00:36:47;;;;;;;25.68;16.45;;;;;;;5.07;89.60;99221.45;1770828;79;21735;-54
2022/01/06 00:39:53;;;;;;;25.95;17.50;;;;;;;5.10;89.65;99197.55;1770151;79;21200;-53
2022/01/06 00:43:03;;;;;;;26.37;17.98;;;;;;;5.07;89.27;99192.97;1770748;80;21243;-53
2022/01/06 00:46:13;;;;;;;25.52;16.90;;;;;;;4.92;89.05;99164.33;1770781;79;21256;-54
2022/01/06 00:49:20;;;;;;;33.02;17.87;;;;;;;4.80;89.13;99167.05;1770941;80;21208;-53
2022/01/06 00:52:28;;;;;;;23.30;16.77;;;;;;;4.79;89.46;99172.64;1771317;79;21236;-54
2022/01/06 00:55:33;;;;;;;26.17;17.80;;;;;;;4.75;89.45;99169.41;1770863;79;21216;-52
2022/01/06 00:58:39;;;;;;;23.02;16.15;;;;;;;4.78;89.70;99171.78;1771338;80;21161;-54
2022/01/06 01:01:48;;;;;;;26.25;17.12;;;;;;;4.76;89.72;99164.33;1771384;79;21335;-52
2022/01/06 01:04:55;;;;;;;26.97;17.98;;;;;;;4.72;89.67;99165.69;1771060;81;21201;-53
2022/01/06 01:08:03;;;;;;;25.92;17.95;;;;;;;4.70;89.74;99178.55;1771088;80;21351;-54
2022/01/06 01:11:10;;;;;;;26.73;18.25;;;;;;;4.71;89.88;99182.95;1770921;79;21213;-54
2022/01/06 01:14:25;;;;;;;24.90;17.23;;;;;;;4.73;89.98;99184.99;1771052;80;21249;-54
2022/01/06 01:17:26;;;;;;;25.95;17.95;;;;;;;4.72;89.90;99181.95;1770800;79;21292;-53
2022/01/06 01:20:32;;;;;;;26.17;17.62;;;;;;;4.73;90.03;99188.20;1770855;79;21389;-53
2022/01/06 01:23:39;;;;;;;25.97;17.82;;;;;;;4.76;90.29;99187.36;1770905;81;21340;-54
2022/01/06 01:26:47;;;;;;;26.33;17.52;;;;;;;4.77;90.36;99187.72;1771032;79;21852;-54
2022/01/06 01:30:10;;;;;;;31.17;18.37;;;;;;;4.76;90.22;99179.76;1770975;80;21970;-54
2022/01/06 01:33:16;;;;;;;28.75;19.02;;;;;;;4.75;90.18;99182.11;1770995;81;21805;-53
2022/01/06 01:36:21;;;;;;;25.43;17.32;;;;;;;4.75;90.20;99180.75;1771240;79;21236;-53
2022/01/06 01:39:28;;;;;;;31.40;19.07;;;;;;;4.75;90.21;99183.47;1771229;80;21350;-53
2022/01/06 01:42:35;;;;;;;31.07;20.12;;;;;;;4.75;90.14;99184.83;1770073;79;21371;-53
2022/01/06 01:45:46;;;;;;;28.17;19.17;;;;;;;4.75;90.05;99182.11;1771101;79;21201;-53
2022/01/06 01:49:09;;;;;;;29.10;18.62;;;;;;;4.74;90.03;99192.63;1770823;80;21532;-53
2022/01/06 01:51:56;;;;;;;27.75;19.07;;;;;;;4.73;90.02;99185.48;1771314;79;21718;-53
2022/01/06 01:55:01;;;;;;;31.42;20.60;;;;;;;4.73;89.89;99187.70;1771263;80;21683;-53
2022/01/06 01:58:08;;;;;;;27.20;18.77;;;;;;;4.71;89.79;99181.59;1771252;80;21323;-53
2022/01/06 02:01:13;;;;;;;29.57;18.80;;;;;;;4.70;89.66;99179.91;1771079;79;21256;-53
2022/01/06 02:04:20;;;;;;;30.40;18.92;;;;;;;4.67;89.52;99178.89;1770739;80;21299;-54
2022/01/06 02:07:26;;;;;;;31.25;19.67;;;;;;;4.65;89.35;99203.13;1771081;79;21418;-54
2022/01/06 02:10:35;;;;;;;28.12;20.15;;;;;;;4.59;89.27;99206.84;1772426;79;21268;-54
2022/01/06 02:13:41;;;;;;;25.65;18.77;;;;;;;4.59;89.28;99195.14;1770968;80;21190;-54
2022/01/06 02:16:47;;;;;;;30.68;20.12;;;;;;;4.55;89.09;99191.91;1770383;79;21343;-54
2022/01/06 02:20:14;;;;;;;30.70;19.60;;;;;;;4.51;88.98;99182.44;1771786;80;21904;-53
2022/01/06 02:23:21;;;;;;;24.70;17.42;;;;;;;4.45;88.72;99192.59;1770909;80;21379;-53
2022/01/06 02:26:25;;;;;;;33.13;20.02;;;;;;;4.38;88.36;99195.61;1771240;79;21197;-53
2022/01/06 02:29:31;;;;;;;28.77;20.90;;;;;;;4.32;88.30;99207.11;1770740;80;21335;-53
2022/01/06 02:32:39;;;;;;;27.82;19.50;;;;;;;4.30;88.39;99202.36;1770890;80;21785;-53
2022/01/06 02:35:47;;;;;;;32.48;21.93;;;;;;;4.27;88.35;99202.70;1771409;79;21232;-53
2022/01/06 02:38:52;;;;;;;28.80;19.15;;;;;;;4.24;88.33;99203.02;1770488;81;21339;-53
2022/01/06 02:41:58;;;;;;;30.27;19.67;;;;;;;4.21;88.24;99205.20;1770675;79;21876;-53
2022/01/06 02:45:03;;;;;;;27.95;17.82;;;;;;;4.15;88.04;99189.12;1757906;81;21268;-55
2022/01/06 02:48:09;;;;;;;26.87;18.27;;;;;;;4.12;87.94;99185.89;1757593;81;21204;-54
2022/01/06 02:51:14;;;;;;;31.82;19.98;;;;;;;4.09;87.94;99182.98;1757385;81;21255;-52
2022/01/06 02:54:23;;;;;;;27.93;18.42;;;;;;;4.05;87.92;99173.52;1758020;81;21200;-53
2022/01/06 02:57:28;;;;;;;27.87;18.35;;;;;;;4.01;87.75;99188.38;1757492;81;21394;-54
2022/01/06 03:00:37;;;;;;;27.65;18.62;;;;;;;3.96;87.75;99208.34;1757460;81;21252;-53
2022/01/06 03:03:44;;;;;;;27.17;17.62;;;;;;;3.95;87.91;99209.34;1757344;81;21367;-54
2022/01/06 03:06:55;;;;;;;24.95;18.10;;;;;;;3.93;87.90;99207.29;1757318;81;21355;-53
2022/01/06 03:10:03;;;;;;;28.25;18.65;;;;;;;3.91;87.91;99214.75;1757466;81;21359;-54
2022/01/06 03:13:10;;;;;;;26.20;17.50;;;;;;;3.93;88.14;99209.17;1757600;81;21212;-54
2022/01/06 03:16:16;;;;;;;28.55;18.45;;;;;;;3.94;88.30;99215.77;1757375;81;21288;-54
2022/01/06 03:19:21;;;;;;;27.37;18.15;;;;;;;3.94;88.27;99218.48;1757380;81;21343;-55
2022/01/06 03:22:26;;;;;;;29.67;18.70;;;;;;;3.94;88.22;99239.28;1757576;81;21200;-54
2022/01/06 03:25:35;;;;;;;28.00;18.35;;;;;;;3.92;88.30;99236.73;1757363;81;21394;-54
2022/01/06 03:28:39;;;;;;;25.57;17.60;;;;;;;3.94;88.42;99233.38;1757833;81;21197;-54
2022/01/06 03:31:47;;;;;;;24.70;17.32;;;;;;;3.95;88.50;99235.05;1757479;81;21872;-54
2022/01/06 03:34:55;;;;;;;28.38;18.52;;;;;;;3.96;88.56;99231.86;1757288;81;21331;-52
2022/01/06 03:38:02;;;;;;;28.45;18.17;;;;;;;3.96;88.61;99238.13;1757260;81;21394;-54
2022/01/06 03:41:08;;;;;;;28.40;18.73;;;;;;;3.96;88.71;99227.79;1757813;81;21567;-54
2022/01/06 03:44:13;;;;;;;32.67;18.35;;;;;;;3.98;88.83;99224.42;1762777;79;21378;-54
2022/01/06 03:47:19;;;;;;;27.15;17.42;;;;;;;3.99;88.91;99232.38;1770929;79;21770;-54
2022/01/06 03:50:27;;;;;;;26.12;18.37;;;;;;;3.98;88.93;99236.61;1770900;79;21193;-54
2022/01/06 03:53:35;;;;;;;25.37;17.60;;;;;;;3.98;88.96;99233.38;1770929;80;21686;-54
2022/01/06 03:56:41;;;;;;;25.62;17.62;;;;;;;3.97;89.01;99224.06;1770990;79;21217;-54
2022/01/06 03:59:46;;;;;;;26.57;17.67;;;;;;;3.96;88.99;99227.30;1770895;80;21237;-54
2022/01/06 04:02:51;;;;;;;24.65;16.82;;;;;;;3.96;89.01;99229.14;1770941;80;21292;-54
2022/01/06 04:05:57;;;;;;;30.80;18.73;;;;;;;3.94;88.94;99231.16;1771200;79;21225;-54
2022/01/06 04:09:02;;;;;;;27.22;18.52;;;;;;;3.91;88.89;99232.34;1770908;80;21264;-54
2022/01/06 04:12:10;;;;;;;26.52;18.17;;;;;;;3.90;88.90;99229.27;1771117;79;21212;-54
2022/01/06 04:15:17;;;;;;;26.70;17.80;;;;;;;3.88;88.86;99226.40;1770690;79;21362;-54
2022/01/06 04:18:26;;;;;;;30.20;18.45;;;;;;;3.86;88.82;99237.39;1770712;80;21749;-55
2022/01/06 04:21:32;;;;;;;32.48;19.37;;;;;;;3.84;88.88;99238.05;1770754;79;21398;-56
2022/01/06 04:24:37;;;;;;;32.98;21.25;;;;;;;3.84;88.99;99246.66;1770646;81;21248;-55
2022/01/06 04:27:45;;;;;;;29.35;20.08;;;;;;;3.84;89.08;99246.66;1770675;81;21328;-55
2022/01/06 04:30:52;;;;;;;32.85;19.42;;;;;;;3.84;89.16;99250.23;1770649;79;21757;-55
2022/01/06 04:33:58;;;;;;;29.75;18.85;;;;;;;3.84;89.19;99253.42;1770684;81;21627;-56
2022/01/06 04:37:03;;;;;;;31.48;18.98;;;;;;;3.84;89.24;99262.41;1770891;79;21402;-54
2022/01/06 04:40:08;;;;;;;29.77;20.05;;;;;;;3.82;89.28;99252.23;1771560;79;21236;-55
2022/01/06 04:43:19;;;;;;;31.68;21.57;;;;;;;3.83;89.34;99249.03;1770828;80;21319;-55
2022/01/06 04:46:26;;;;;;;29.10;20.68;;;;;;;3.84;89.40;99258.84;1771149;79;21208;-55
2022/01/06 04:49:32;;;;;;;32.73;20.05;;;;;;;3.84;89.47;99264.25;1740332;82;21336;-55
2022/01/06 04:52:39;;;;;;;34.23;21.07;;;;;;;3.86;89.53;99260.89;1740590;82;21220;-55
2022/01/06 04:55:45;;;;;;;36.50;21.20;;;;;;;3.86;89.52;99264.95;1740384;81;21216;-54
2022/01/06 04:58:51;;;;;;;30.40;21.60;;;;;;;3.85;89.50;99257.36;1740369;82;21315;-55
2022/01/06 05:01:59;;;;;;;27.13;20.27;;;;;;;3.84;89.43;99261.05;1740319;81;21213;-55
2022/01/06 05:05:05;;;;;;;29.05;20.72;;;;;;;3.83;89.38;99262.08;1740201;81;21208;-54
2022/01/06 05:08:12;;;;;;;31.25;20.68;;;;;;;3.84;89.40;99271.02;1740460;82;21189;-54
2022/01/06 05:11:18;;;;;;;30.32;20.30;;;;;;;3.83;89.41;99278.31;1733717;81;21216;-54
2022/01/06 05:14:25;;;;;;;29.87;20.57;;;;;;;3.83;89.40;99285.58;1740790;82;21268;-54
2022/01/06 05:17:33;;;;;;;25.75;19.87;;;;;;;3.84;89.39;99282.70;1740883;82;21690;-54
2022/01/06 05:20:42;;;;;;;27.62;19.70;;;;;;;3.82;89.36;99284.72;1740835;81;21241;-54
2022/01/06 05:23:49;;;;;;;26.80;19.77;;;;;;;3.81;89.25;99280.32;1740446;82;21201;-55
2022/01/06 05:26:55;;;;;;;32.03;20.15;;;;;;;3.79;89.20;99279.63;1740470;81;21205;-54
2022/01/06 05:30:03;;;;;;;28.40;19.65;;;;;;;3.78;89.11;99282.00;1740823;82;21335;-55
2022/01/06 05:33:12;;;;;;;34.43;20.95;;;;;;;3.79;89.02;99299.09;1767197;81;21304;-55
2022/01/06 05:36:17;;;;;;;33.50;22.52;;;;;;;3.76;88.92;99298.89;1770562;79;21363;-55
2022/01/06 05:39:25;;;;;;;35.68;24.80;;;;;;;3.75;88.87;99301.27;1770635;80;21208;-55
2022/01/06 05:42:31;;;;;;;42.03;24.70;;;;;;;3.75;88.77;99314.80;1770694;81;21228;-55
2022/01/06 05:45:37;;;;;;;55.45;28.02;;;;;;;3.74;88.72;99315.78;1734916;82;21216;-55
2022/01/06 05:48:43;;;;;;;56.53;31.42;;;;;;;3.73;88.68;99324.06;1711617;83;21754;-55
2022/01/06 05:51:49;;;;;;;56.40;31.85;;;;;;;3.71;88.58;99339.10;1770128;81;21340;-55
2022/01/06 05:54:54;;;;;;;49.88;30.52;;;;;;;3.72;88.56;99346.23;1770624;80;21837;-55
2022/01/06 05:58:00;;;;;;;50.00;30.65;;;;;;;3.79;88.61;99351.88;1754854;80;21612;-55
2022/01/06 06:01:05;;;;;;;43.35;29.75;;;;;;;3.89;88.57;99364.78;1767188;80;21209;-55
2022/01/06 06:04:11;;;;;;;45.88;31.85;;;;;;;3.97;88.50;99361.63;1767602;80;21586;-56
2022/01/06 06:07:19;;;;;;;52.58;35.90;;;;;;;4.08;88.43;99357.80;1735167;80;21177;-56
2022/01/06 06:10:26;;;;;;;42.13;30.17;;;;;;;4.19;88.30;99362.94;1761858;80;21813;-55
2022/01/06 06:13:30;;;;;;;43.98;25.70;;;;;;;4.29;88.06;99375.37;1749013;80;21188;-55
2022/01/06 06:16:36;;;;;;;33.23;22.20;;;;;;;4.37;87.86;99375.42;1749752;80;21193;-55
2022/01/06 06:19:41;;;;;;;31.77;21.15;;;;;;;4.46;87.70;99385.78;1748034;81;21840;-55
2022/01/06 06:22:47;;;;;;;33.05;22.48;;;;;;;4.55;87.55;99384.30;1770883;80;21260;-55
2022/01/06 06:25:53;;;;;;;38.67;24.10;;;;;;;4.65;87.45;99377.93;1770665;79;21726;-55
2022/01/06 06:28:58;;;;;;;37.88;25.00;;;;;;;4.74;87.32;99372.88;1773383;80;21193;-55
2022/01/06 06:32:05;;;;;;;34.18;22.75;;;;;;;4.83;87.19;99362.39;1764148;81;21774;-54
2022/01/06 06:35:12;;;;;;;27.48;20.32;;;;;;;4.90;87.01;99368.34;1768601;80;21189;-54
2022/01/06 06:38:18;;;;;;;28.92;20.02;;;;;;;4.98;86.86;99379.75;1766749;80;21769;-54
2022/01/06 06:41:23;;;;;;;31.80;23.05;;;;;;;5.05;86.69;99372.62;1727503;81;21255;-54
2022/01/06 06:44:33;;;;;;;35.03;26.33;;;;;;;5.11;86.58;99381.45;1762580;80;21192;-54
2022/01/06 06:47:42;;;;;;;35.92;23.30;;;;;;;5.15;86.36;99395.04;1712022;80;21689;-54
2022/01/06 06:50:50;;;;;;;35.03;24.12;;;;;;;5.18;86.10;99397.41;1732163;81;21220;-55
2022/01/06 06:53:55;;;;;;;37.60;24.10;;;;;;;5.21;85.83;99394.37;1760069;81;21753;-55
2022/01/06 06:57:01;;;;;;;29.42;21.07;;;;;;;5.24;85.48;99405.74;1753631;80;21543;-55
2022/01/06 07:00:05;;;;;;;28.87;20.82;;;;;;;5.25;85.18;99400.65;1754100;81;21188;-53
2022/01/06 07:03:10;;;;;;;31.80;22.42;;;;;;;5.30;84.90;99412.35;1767905;81;21255;-55
2022/01/06 07:06:22;;;;;;;36.25;22.55;;;;;;;5.30;84.71;99413.71;1762934;80;21358;-54
2022/01/06 07:09:30;;;;;;;31.57;20.80;;;;;;;5.31;84.49;99406.76;1771855;80;21216;-53
2022/01/06 07:12:37;;;;;;;29.40;21.20;;;;;;;5.33;84.38;99408.81;1772317;80;21198;-53
2022/01/06 07:15:45;;;;;;;32.23;20.08;;;;;;;5.37;84.19;99403.91;1771625;79;21252;-53
2022/01/06 07:18:53;;;;;;;28.47;20.27;;;;;;;5.41;84.14;99414.25;1770853;80;21181;-53
2022/01/06 07:21:58;;;;;;;39.73;26.97;;;;;;;5.49;84.03;99422.91;1770519;79;21232;-55
2022/01/06 07:25:04;;;;;;;42.58;28.00;;;;;;;5.54;83.86;99425.48;1767800;79;21476;-55
2022/01/06 07:28:11;;;;;;;31.80;21.95;;;;;;;5.61;83.77;99436.52;1752030;81;21193;-54
2022/01/06 07:31:16;;;;;;;39.48;23.07;;;;;;;5.66;83.54;99447.73;1763680;79;21243;-55
2022/01/06 07:34:21;;;;;;;31.97;22.77;;;;;;;5.67;83.40;99452.13;1771125;80;21735;-53
2022/01/06 07:37:26;;;;;;;37.90;25.92;;;;;;;5.68;83.26;99460.60;1769639;79;21252;-54
2022/01/06 07:40:32;;;;;;;44.00;28.50;;;;;;;5.66;83.04;99462.13;1725261;81;21996;-54
2022/01/06 07:43:38;;;;;;;46.10;29.55;;;;;;;5.65;82.92;99464.52;1770255;80;21194;-54
2022/01/06 07:46:46;;;;;;;45.98;27.52;;;;;;;5.66;82.89;99460.77;1759078;79;21256;-53
2022/01/06 07:49:52;;;;;;;37.45;24.82;;;;;;;5.68;82.80;99461.46;1765812;79;21363;-53
2022/01/06 07:52:59;;;;;;;37.33;24.32;;;;;;;5.68;82.73;99464.67;1768759;81;21714;-54
2022/01/06 07:56:03;;;;;;;37.95;24.37;;;;;;;5.70;82.77;99462.65;1741495;80;21208;-54
2022/01/06 07:59:10;;;;;;;36.77;24.35;;;;;;;5.74;82.88;99462.67;1763303;80;21193;-54
2022/01/06 08:02:17;;;;;;;34.88;23.90;;;;;;;5.80;82.83;99466.06;1744774;80;21636;-53
2022/01/06 08:05:25;;;;;;;31.82;22.62;;;;;;;5.85;82.78;99474.59;1764610;79;21252;-53
2022/01/06 08:08:30;;;;;;;35.52;25.12;;;;;;;5.89;82.80;99472.73;1756420;80;21247;-54
2022/01/06 08:11:35;;;;;;;41.48;27.02;;;;;;;5.92;82.74;99464.73;1765412;81;21166;-54
2022/01/06 08:14:43;;;;;;;36.30;23.87;;;;;;;5.97;82.70;99456.94;1768400;80;21232;-53
2022/01/06 08:17:50;;;;;;;37.48;25.57;;;;;;;6.00;82.66;99456.10;1758772;80;21217;-55
2022/01/06 08:20:58;;;;;;;38.73;25.30;;;;;;;6.03;82.52;99448.11;1771424;80;21221;-55
2022/01/06 08:24:03;;;;;;;40.10;26.23;;;;;;;6.04;82.28;99437.06;1766164;80;21303;-54
2022/01/06 08:27:08;;;;;;;39.03;27.00;;;;;;;6.06;82.35;99446.41;1754092;81;21229;-54
2022/01/06 08:30:14;;;;;;;36.28;25.92;;;;;;;6.07;82.46;99445.41;1755621;81;21170;-54
2022/01/06 08:33:20;;;;;;;66.97;40.83;;;;;;;6.11;82.56;99452.19;1766735;81;21184;-54
2022/01/06 08:36:25;;;;;;;61.73;38.88;;;;;;;6.16;82.65;99446.23;1743245;81;21788;-55
2022/01/06 08:39:31;;;;;;;59.08;37.67;;;;;;;6.20;82.63;99437.56;1765884;81;21186;-54
2022/01/06 08:42:41;;;;;;;57.98;39.20;;;;;;;6.27;82.59;99430.44;1768075;80;21387;-55
2022/01/06 08:45:46;;;;;;;46.50;30.72;;;;;;;6.34;82.41;99436.03;1768495;79;21182;-55
2022/01/06 08:48:52;;;;;;;37.40;27.17;;;;;;;6.39;82.37;99443.17;1769632;81;21304;-55
2022/01/06 08:51:56;;;;;;;35.05;25.43;;;;;;;6.43;82.24;99452.16;1761861;80;21559;-55
2022/01/06 08:55:04;;;;;;;37.55;25.52;;;;;;;6.46;82.10;99441.44;1768836;79;21181;-55
2022/01/06 08:58:11;;;;;;;43.75;28.02;;;;;;;6.51;82.00;99451.29;1768863;81;21213;-55
2022/01/06 09:01:17;;;;;;;38.78;27.73;;;;;;;6.58;81.98;99450.95;1768881;79;21263;-55
2022/01/06 09:04:27;;;;;;;43.63;26.52;;;;;;;6.64;81.90;99452.47;1756332;81;21560;-54
2022/01/06 09:07:35;;;;;;;39.55;27.40;;;;;;;6.70;81.77;99451.77;1729368;82;21745;-53
2022/01/06 09:10:45;;;;;;;41.50;27.13;;;;;;;6.75;81.74;99446.66;1743864;81;21264;-55
2022/01/06 09:13:52;;;;;;;37.83;24.37;;;;;;;6.80;81.73;99452.93;1767395;81;21547;-54
2022/01/06 09:17:03;;;;;;;43.58;28.15;;;;;;;6.83;81.64;99445.28;1757949;79;21201;-54
2022/01/06 09:20:12;;;;;;;44.73;26.37;;;;;;;6.85;81.62;99450.00;1764634;81;21252;-53
2022/01/06 09:23:20;;;;;;;42.13;27.90;;;;;;;6.86;81.70;99461.75;1762893;80;21190;-54
2022/01/06 09:26:27;;;;;;;42.23;27.22;;;;;;;6.89;81.83;99469.05;1756880;81;21273;-54
2022/01/06 09:29:32;;;;;;;43.10;27.75;;;;;;;6.90;81.90;99472.09;1755544;81;21205;-54
2022/01/06 09:32:38;;;;;;;35.05;21.95;;;;;;;6.91;81.95;99473.78;1752310;81;21204;-54
2022/01/06 09:35:44;;;;;;;36.83;22.20;;;;;;;6.94;82.06;99487.06;1752266;81;21823;-54
2022/01/06 09:38:51;;;;;;;34.88;21.70;;;;;;;6.92;82.02;99465.12;1750233;81;21263;-53
2022/01/06 09:41:56;;;;;;;36.35;23.47;;;;;;;6.90;82.12;99468.52;1761456;80;21193;-55
2022/01/06 09:45:04;;;;;;;34.13;21.77;;;;;;;6.92;82.36;99473.28;1753001;81;21221;-54
2022/01/06 09:48:10;;;;;;;32.30;20.85;;;;;;;6.96;82.60;99463.23;1719392;81;21192;-53
2022/01/06 09:51:16;;;;;;;31.17;19.07;;;;;;;7.05;82.66;99462.20;1744948;81;21330;-54
2022/01/06 09:54:21;;;;;;;32.73;20.77;;;;;;;7.12;82.74;99469.15;1752267;80;21188;-53
2022/01/06 09:57:29;;;;;;;33.08;20.57;;;;;;;7.15;82.66;99467.43;1747922;81;21173;-54
2022/01/06 10:00:35;;;;;;;35.78;23.50;;;;;;;7.19;82.68;99472.34;1755314;81;21304;-54
2022/01/06 10:03:49;;;;;;;37.17;23.45;;;;;;;7.22;82.68;99474.70;1766711;81;21209;-53
2022/01/06 10:07:13;;;;;;;31.25;19.92;;;;;;;7.29;82.76;99480.30;1765779;79;21197;-53
2022/01/06 10:10:22;;;;;;;30.88;19.45;;;;;;;7.33;82.70;99489.28;1760107;81;22124;-54
2022/01/06 10:13:32;;;;;;;28.60;19.48;;;;;;;7.32;82.56;99494.91;1761877;81;21166;-54
2022/01/06 10:16:37;;;;;;;27.80;18.00;;;;;;;7.26;82.55;99500.53;1746455;81;21385;-54
2022/01/06 10:19:48;;;;;;;26.48;16.52;;;;;;;7.18;82.44;99501.09;1762103;81;21566;-53
2022/01/06 10:22:57;;;;;;;26.35;16.32;;;;;;;7.09;82.42;99511.14;1762051;81;21157;-53
2022/01/06 10:26:06;;;;;;;24.35;15.45;;;;;;;7.02;82.61;99507.45;1762022;81;21451;-53
2022/01/06 10:29:14;;;;;;;28.23;17.60;;;;;;;6.99;82.74;99500.96;1755490;81;21557;-53
2022/01/06 10:32:27;;;;;;;28.60;18.67;;;;;;;7.04;82.91;99509.98;1734210;82;21807;-53
2022/01/06 10:35:33;;;;;;;26.02;15.05;;;;;;;7.08;82.96;99509.46;1696392;84;21281;-53
2022/01/06 10:38:38;;;;;;;25.10;14.98;;;;;;;7.15;82.91;99510.44;1733851;82;21211;-54
2022/01/06 10:41:45;;;;;;;28.07;18.23;;;;;;;7.20;82.72;99509.41;1733644;82;21208;-53
2022/01/06 10:44:57;;;;;;;22.70;15.83;;;;;;;7.23;82.61;99515.86;1696661;84;21222;-53
2022/01/06 10:48:06;;;;;;;24.02;16.10;;;;;;;7.26;82.53;99520.12;1761216;81;21235;-54
2022/01/06 10:51:15;;;;;;;21.05;14.63;;;;;;;7.28;82.43;99533.02;1760753;80;21219;-54
2022/01/06 10:54:30;;;;;;;16.55;11.83;;;;;;;7.29;82.31;99527.39;1770721;80;21367;-53
2022/01/06 10:57:37;;;;;;;19.17;13.65;;;;;;;7.23;81.93;99514.49;1772440;80;21857;-53
2022/01/06 11:00:55;;;;;;;19.15;13.53;;;;;;;7.16;81.77;99539.38;1770007;79;21438;-55
2022/01/06 11:04:02;;;;;;;21.27;13.72;;;;;;;7.09;81.88;99551.96;1770514;80;21394;-53
2022/01/06 11:07:07;;;;;;;20.97;14.13;;;;;;;7.02;81.97;99556.92;1749353;79;21394;-53
2022/01/06 11:10:20;;;;;;;20.75;13.75;;;;;;;6.93;82.25;99552.53;1729551;83;21370;-53
2022/01/06 11:13:24;;;;;;;19.95;14.25;;;;;;;6.86;82.63;99551.00;1729463;82;21426;-51
2022/01/06 11:16:30;;;;;;;24.15;15.98;;;;;;;6.78;82.98;99552.37;1729673;82;21272;-51
2022/01/06 11:19:36;;;;;;;22.30;14.35;;;;;;;6.70;83.29;99547.45;1729630;83;21251;-51
2022/01/06 11:22:42;;;;;;;21.95;12.93;;;;;;;6.63;83.74;99536.40;1729287;83;21712;-51
2022/01/06 11:25:47;;;;;;;24.02;15.93;;;;;;;6.58;84.22;99522.47;1729965;82;21288;-53
2022/01/06 11:29:06;;;;;;;24.65;15.98;;;;;;;6.51;84.50;99528.27;1742074;79;21228;-52
2022/01/06 11:32:15;;;;;;;22.93;15.93;;;;;;;6.44;84.79;99522.33;1744656;80;22046;-51
2022/01/06 11:35:27;;;;;;;21.05;13.98;;;;;;;6.43;85.21;99541.00;1745241;79;21191;-52
2022/01/06 11:38:34;;;;;;;25.97;15.43;;;;;;;6.39;85.36;99526.89;1769485;81;21233;-53
2022/01/06 11:41:45;;;;;;;26.15;14.47;;;;;;;6.41;85.64;99527.58;1756197;80;22887;-53
2022/01/06 11:45:05;;;;;;;20.85;14.03;;;;;;;6.42;85.72;99534.73;1745271;81;21197;-54
2022/01/06 11:48:20;;;;;;;27.42;17.87;;;;;;;6.45;85.80;99528.95;1760763;81;21343;-54
2022/01/06 11:51:39;;;;;;;23.87;14.98;;;;;;;6.49;85.85;99541.67;1763417;80;21454;-53
2022/01/06 11:55:01;;;;;;;22.52;13.80;;;;;;;6.55;85.80;99541.02;1770292;79;21232;-52
2022/01/06 11:58:19;;;;;;;17.62;12.58;;;;;;;6.66;86.05;99529.79;1769642;80;21217;-53
2022/01/06 12:01:26;;;;;;;16.73;11.85;;;;;;;6.76;86.00;99538.09;1725574;82;21860;-53
2022/01/06 12:04:32;;;;;;;25.72;17.17;;;;;;;6.84;85.84;99554.40;1768165;80;21280;-54
2022/01/06 12:07:39;;;;;;;26.87;17.70;;;;;;;6.91;85.71;99570.35;1769519;80;21201;-53
2022/01/06 12:10:59;;;;;;;20.65;14.25;;;;;;;6.99;85.62;99566.27;1763394;80;21220;-53
2022/01/06 12:14:06;;;;;;;51.35;32.73;;;;;;;7.04;85.42;99567.95;1763876;81;21192;-54
2022/01/06 12:17:21;;;;;;;33.58;21.12;;;;;;;7.07;85.18;99573.05;1764207;80;21309;-55
2022/01/06 12:20:30;;;;;;;28.92;18.73;;;;;;;7.10;84.94;99566.43;1768655;80;21805;-54
2022/01/06 12:23:39;;;;;;;26.73;17.92;;;;;;;7.12;84.72;99579.36;1753312;81;21553;-54
2022/01/06 12:26:47;;;;;;;29.40;19.15;;;;;;;7.15;84.64;99586.64;1739594;81;21745;-55
2022/01/06 12:29:56;;;;;;;27.70;19.25;;;;;;;7.17;84.54;99583.74;1739875;82;21237;-53
2022/01/06 12:33:13;;;;;;;28.90;19.05;;;;;;;7.19;84.36;99586.65;1763453;79;21778;-52
2022/01/06 12:36:22;;;;;;;26.65;19.48;;;;;;;7.22;84.25;99582.72;1763602;80;21263;-53
2022/01/06 12:39:28;;;;;;;24.75;18.30;;;;;;;7.23;84.07;99574.91;1764995;80;21982;-55
2022/01/06 12:42:33;;;;;;;26.07;17.87;;;;;;;7.23;83.87;99578.45;1763299;81;21856;-53
2022/01/06 12:45:40;;;;;;;22.98;16.65;;;;;;;7.24;83.80;99576.09;1756619;79;21200;-53
2022/01/06 12:48:54;;;;;;;23.18;14.38;;;;;;;7.26;83.68;99584.08;1769498;80;21734;-52
2022/01/06 12:51:57;;;;;;;;;;;;;;;7.27;83.62;99591.21;1771916;79;21216;-52
2022/01/06 12:55:06;;;;;;;35.45;22.35;;;;;;;7.27;83.60;99589.34;1768850;80;20213;-52
2022/01/06 12:58:13;;;;;;;55.70;29.72;;;;;;;7.27;83.59;99602.10;1769808;81;21753;-51
2022/01/06 13:01:22;;;;;;;67.00;33.00;;;;;;;7.26;83.58;99601.24;1768372;81;21216;-50
2022/01/06 13:04:31;;;;;;;75.92;40.03;;;;;;;7.25;83.46;99598.70;1769336;80;21240;-50
2022/01/06 13:07:39;;;;;;;39.00;21.95;;;;;;;7.24;83.34;99603.81;1769789;81;21562;-48
2022/01/06 13:10:47;;;;;;;30.85;19.48;;;;;;;7.19;83.36;99611.14;1769324;79;21181;-49
2022/01/06 13:13:59;;;;;;;37.70;27.37;;;;;;;7.17;83.29;99610.95;1769240;81;21581;-48
2022/01/06 13:17:29;;;;;;;41.60;29.90;;;;;;;7.11;83.25;99628.84;1770124;79;21224;-48
2022/01/06 13:20:40;;;;;;;41.13;27.15;;;;;;;7.06;83.34;99643.47;1769702;79;21189;-48
2022/01/06 13:23:44;;;;;;;32.38;23.15;;;;;;;7.06;83.49;99646.69;1739344;82;21229;-48
2022/01/06 13:27:05;;;;;;;29.15;20.17;;;;;;;7.04;83.54;99646.86;1739255;81;21220;-49
2022/01/06 13:30:13;;;;;;;30.90;20.72;;;;;;;7.03;83.50;99651.98;1739039;81;21236;-50
2022/01/06 13:33:21;;;;;;;38.55;28.85;;;;;;;7.02;83.51;99661.17;1738362;82;21974;-47
2022/01/06 13:36:36;;;;;;;37.90;26.82;;;;;;;6.99;83.60;99660.13;1738494;81;21212;-49
2022/01/06 13:39:50;;;;;;;37.80;26.15;;;;;;;7.00;83.74;99668.65;1738955;82;21349;-48
2022/01/06 13:42:58;;;;;;;33.40;22.65;;;;;;;6.97;83.81;99670.35;1735819;81;21761;-48
2022/01/06 13:46:30;;;;;;;39.08;26.30;;;;;;;6.93;83.79;99664.89;1739299;81;21781;-48
2022/01/06 13:52:53;;;;;;;35.17;23.73;;;;;;;6.83;83.79;99665.59;1734911;82;21766;-48
2022/01/06 13:56:14;;;;;;;37.70;24.25;;;;;;;6.77;83.74;99667.61;1739796;81;21816;-48
2022/01/06 13:59:21;;;;;;;39.08;25.30;;;;;;;6.69;83.56;99669.49;1753371;81;21193;-49
2022/01/06 14:02:28;;;;;;;43.75;28.12;;;;;;;6.63;83.70;99676.44;1769314;80;21263;-49
2022/01/06 14:05:37;;;;;;;40.38;27.07;;;;;;;6.60;83.93;99686.30;1769185;81;21248;-49
2022/01/06 14:08:44;;;;;;;41.30;28.40;;;;;;;6.59;84.19;99686.46;1770114;80;21261;-47
2022/01/06 14:11:55;;;;;;;48.15;30.70;;;;;;;6.59;84.39;99698.20;1768595;81;21769;-48
2022/01/06 14:15:01;;;;;;;56.68;33.80;;;;;;;6.61;84.44;99703.47;1768836;80;21335;-50
2022/01/06 14:18:10;;;;;;;59.50;35.33;;;;;;;6.60;84.43;99695.81;1768786;81;21359;-50
2022/01/06 14:21:18;;;;;;;79.17;42.15;;;;;;;6.59;84.32;99672.37;1768277;80;21213;-50
2022/01/06 14:24:23;;;;;;;76.05;42.33;;;;;;;6.54;83.98;99675.23;1765507;81;21201;-48
2022/01/06 14:27:28;;;;;;;63.20;37.20;;;;;;;6.48;83.73;99676.77;1767739;80;21197;-48
2022/01/06 14:30:34;;;;;;;53.10;33.50;;;;;;;6.42;83.77;99688.31;1739310;81;21861;-48
2022/01/06 14:33:51;;;;;;;69.20;38.58;;;;;;;6.36;83.82;99691.67;1738745;82;21239;-48
2022/01/06 14:36:57;;;;;;;61.40;38.02;;;;;;;6.31;83.74;99689.13;1746123;81;21185;-48
2022/01/06 14:40:06;;;;;;;56.35;35.13;;;;;;;6.25;83.83;99677.57;1768824;79;21454;-51
2022/01/06 14:43:15;;;;;;;52.62;34.80;;;;;;;6.20;83.78;99683.47;1741265;80;21204;-48